Flight Track Log - Related Links

Times and Time Zones

All times are in EDT time to prevent confusion due to time zone crossing. See the N249AJ flight status page for this flight to view local times or setup timezone preferences in your user account.

Time Position Orientation Groundspeed Altitude Reporting Facility
EDT Latitude Longitude Course Direction KTS MPH feet Rate Location/Type
Sun 05:10:30 PM 26.3631 -80.1469 North 177 204 1,400  Level Miami Center
Sun 05:11:30 PM 26.4194 -80.1392 North 212 244 2,300 1,600 Climbing Miami Center
Sun 05:12:30 PM 26.4567 -80.0636 61° Northeast 262 302 4,600 2,200 Climbing Miami Center
Sun 05:13:30 PM 26.4917 -79.9928 61° Northeast 279 321 6,700 1,150 Climbing Miami Center
Sun 05:14:30 PM 26.5375 -79.8986 61° Northeast 333 383 6,900 100 Climbing Miami Center
Sun 05:15:30 PM 26.5664 -79.8206 68° East 311 358 6,900  Level Miami Center
Sun 05:16:30 PM 26.6014 -79.7400 64° Northeast 293 337 6,900 50 Level Miami Center
Sun 05:17:30 PM 26.6386 -79.6550 64° Northeast 298 343 7,000 950 Climbing Miami Center
Sun 05:18:30 PM 26.6756 -79.5697 64° Northeast 298 343 8,800 1,750 Climbing Miami Center
Sun 05:19:30 PM 26.7103 -79.4939 63° Northeast 298 343 10,500 1,700 Climbing Miami Center
Sun 05:20:30 PM 26.7583 -79.3903 63° Northeast 322 371 12,200 1,650 Climbing Miami Center
Sun 05:21:30 PM 26.7828 -79.2978 73° East 336 387 13,800 1,550 Climbing Miami Center
Sun 05:22:30 PM 26.7153 -79.2125 132° Southeast 301 346 15,300 1,500 Climbing Miami Center
Sun 05:23:30 PM 26.6369 -79.1389 140° Southeast 316 364 16,800 1,400 Climbing Miami Center
Sun 05:24:30 PM 26.5567 -79.0608 139° Southeast 346 398 18,100 1,300 Climbing Miami Center
Sun 05:25:30 PM 26.4828 -78.9850 137° Southeast 362 417 19,400 1,150 Climbing Miami Center
Sun 05:26:30 PM 26.4022 -78.9072 139° Southeast 376 433 20,400 908 Climbing Miami Center
Sun 05:27:29 PM 26.3178 -78.8269 140° Southeast 376 433 21,200 800 Climbing Miami Center
Sun 05:28:30 PM 26.2311 -78.7419 139° Southeast 396 456 22,000 793 Climbing Miami Center
Sun 05:29:30 PM 26.1464 -78.6597 139° Southeast 402 463 22,800 807 Climbing Miami Center
Sun 05:30:29 PM 26.0597 -78.5797 140° Southeast 414 476 23,600 800 Climbing Miami Center
Sun 05:31:30 PM 25.9708 -78.4953 139° Southeast 414 476 24,400 793 Climbing Miami Center
Sun 05:32:30 PM 25.8861 -78.4108 138° Southeast 414 476 25,200 750 Climbing Miami Center
Sun 05:33:30 PM 25.7950 -78.3289 141° Southeast 414 476 25,900 700 Climbing Miami Center
Sun 05:34:30 PM 25.7081 -78.2450 139° Southeast 419 482 26,600 650 Climbing Miami Center
Sun 05:35:30 PM 25.6211 -78.1564 137° Southeast 424 488 27,200 600 Climbing Miami Center
Sun 05:36:30 PM 25.5339 -78.0725 139° Southeast 424 488 27,800 650 Climbing Miami Center
Sun 05:37:30 PM 25.4406 -77.9886 141° Southeast 424 488 28,500 655 Climbing Miami Center
Sun 05:38:29 PM 25.3578 -77.8958 135° Southeast 424 488 29,100 605 Climbing Miami Center
Sun 05:39:29 PM 25.2664 -77.8125 140° Southeast 424 488 29,700 595 Climbing Miami Center
Sun 05:40:30 PM 25.1769 -77.7267 139° Southeast 424 488 30,300 545 Climbing Miami Center
Sun 05:41:30 PM 25.0856 -77.6436 141° Southeast 424 488 30,800 500 Climbing Miami Center
Sun 05:42:30 PM 24.9919 -77.5536 139° Southeast 429 494 31,300 500 Climbing Miami Center
Sun 05:43:30 PM 24.8942 -77.4658 141° Southeast 445 512 31,800 550 Climbing Miami Center
Sun 05:44:30 PM 24.8067 -77.3786 138° Southeast 445 512 32,400 550 Climbing Miami Center
Sun 05:45:30 PM 24.7169 -77.2936 139° Southeast 440 506 32,900 500 Climbing Miami Center
Sun 05:46:30 PM 24.6233 -77.2086 140° Southeast 435 501 33,400 504 Climbing Miami Center
Sun 05:47:29 PM 24.5336 -77.1214 139° Southeast 435 501 33,900 550 Climbing Miami Center
Sun 05:48:30 PM 24.4417 -77.0369 140° Southeast 435 501 34,500 550 Climbing Miami Center
Sun 05:49:29 PM 24.3497 -76.9522 140° Southeast 430 495 35,000 200 Climbing Miami Center
Sun 05:50:30 PM 24.2558 -76.8658 140° Southeast 430 495 34,900 -50 Descending Miami Center
Sun 05:51:29 PM 24.1617 -76.7769 139° Southeast 430 495 34,900  Level Miami Center
Sun 05:52:30 PM 24.0550 -76.6814 141° Southeast 441 507 34,900  Level Miami Center
Sun 05:53:29 PM 23.9544 -76.5906 140° Southeast 452 520 34,900  Level Miami Center
Sun 05:54:30 PM 23.8583 -76.5000 139° Southeast 457 526 34,900 50 Level Miami Center
Sun 05:55:29 PM 23.7597 -76.4094 140° Southeast 457 526 35,000 50 Climbing Miami Center
Sun 05:56:29 PM 23.6592 -76.3211 141° Southeast 457 526 35,000  Level Miami Center
Sun 05:57:30 PM 23.5564 -76.2264 140° Southeast 462 532 35,000  Level Miami Center
Sun 05:58:29 PM 23.4578 -76.1386 141° Southeast 462 532 35,000  Level Miami Center
Sun 05:59:29 PM 23.3569 -76.0464 140° Southeast 462 532 35,000  Level Miami Center
Sun 06:00:29 PM 23.2644 -75.9633 140° Southeast 472 543 35,000  Level Miami Center
Sun 06:01:29 PM 23.1617 -75.8736 141° Southeast 472 543 35,000  Level Miami Center
Sun 06:02:30 PM 23.0628 -75.7819 140° Southeast 472 543 35,000  Level Miami Center
Sun 06:03:30 PM 22.9617 -75.6903 140° Southeast 472 543 35,000  Level Miami Center
Sun 06:04:30 PM 22.8608 -75.6008 141° Southeast 472 543 35,000  Level Miami Center
Sun 06:05:30 PM 22.7617 -75.5094 140° Southeast 472 543 35,000  Level Miami Center
Sun 06:06:30 PM 22.6606 -75.4206 141° Southeast 472 543 35,000  Level Miami Center
Sun 06:07:30 PM 22.5617 -75.3339 141° Southeast 472 543 35,000  Level Miami Center
Sun 06:08:30 PM 22.4603 -75.2408 140° Southeast 472 543 35,000  Level Miami Center
Sun 06:09:30 PM 22.3569 -75.1522 142° Southeast 472 543 35,000  Level Miami Center
Sun 06:10:30 PM 22.2558 -75.0639 141° Southeast 472 543 35,000  Level Miami Center
Sun 06:11:29 PM 22.1564 -74.9708 139° Southeast 472 543 35,000  Level Miami Center
Sun 06:12:30 PM 22.0531 -74.8872 143° Southeast 472 543 35,000  Level Miami Center
Sun 06:13:30 PM 21.9517 -74.7969 140° Southeast 472 543 35,000  Level Miami Center
Sun 06:14:30 PM 21.8522 -74.7092 141° Southeast 472 543 35,000  Level Miami Center
Sun 06:15:30 PM 21.7528 -74.6169 139° Southeast 467 537 35,000  Level Miami Center
Sun 06:16:29 PM 21.6447 -74.5181 140° Southeast 472 543 35,000  Level Miami Center
Sun 06:17:29 PM 21.5411 -74.4239 140° Southeast 472 543 35,000  Level Miami Center
Sun 06:18:29 PM 21.4394 -74.3367 141° Southeast 477 549 35,000  Level Miami Center
Sun 06:19:29 PM 21.3378 -74.2517 142° Southeast 477 549 35,000  Level Miami Center
Sun 06:20:29 PM 21.2358 -74.1600 140° Southeast 477 549 35,000  Level Miami Center
Sun 06:21:29 PM 21.1342 -74.0708 141° Southeast 477 549 35,000  Level Miami Center
Sun 06:22:30 PM 21.0322 -73.9819 141° Southeast 477 549 35,000  Level Miami Center
Sun 06:23:30 PM 20.9517 -73.9125 141° Southeast 477 549 35,000 -50 Level Miami Center
Sun 06:24:30 PM 20.8392 -73.8172 142° Southeast 477 549 34,900  Descending Miami Center
Sun 06:25:29 PM 20.7353 -73.7286 141° Southeast 477 549 35,000 50 Climbing Miami Center
Sun 06:26:30 PM 20.6353 -73.6400 140° Southeast 477 549 35,000 -50 Level Miami Center
Sun 06:27:30 PM 20.5333 -73.5517 141° Southeast 477 549 34,900 -50 Descending Miami Center
Sun 06:28:30 PM 20.4333 -73.4678 142° Southeast 477 549 34,900  Level Miami Center
Sun 06:29:30 PM 20.3314 -73.3772 140° Southeast 477 549 34,900  Level Miami Center
Sun 06:30:30 PM 20.2272 -73.2917 142° Southeast 477 549 34,900  Level Miami Center
Sun 06:31:29 PM 20.1292 -73.2081 141° Southeast 471 542 34,900  Level Miami Center
Sun 06:32:30 PM 20.0131 -73.1425 152° Southeast 471 542 34,900  Level Miami Center
Sun 06:33:30 PM 19.9008 -73.0750 151° Southeast 466 536 34,900  Level Miami Center
Sun 06:34:30 PM 19.7889 -73.0097 151° Southeast 466 536 34,900  Level Miami Center
Sun 06:36:00 PM 19.6285 -72.9217 153° Southeast  Level FlightAware
Sun 06:43:00 PM 18.8795 -72.5130 153° Southeast  Level FlightAware
Sun 06:44:00 PM 18.7724 -72.4549 153° Southeast  Level FlightAware
Sun 06:45:00 PM 18.6653 -72.3969 153° Southeast  Level FlightAware
Sun 06:46:00 PM 18.5582 -72.3390 153° Southeast  Level FlightAware
Sun 06:47:00 PM 18.4510 -72.2811 153° Southeast  Level FlightAware
Sun 06:48:00 PM 18.3439 -72.2234 153° Southeast  Level FlightAware
Sun 06:49:00 PM 18.2367 -72.1656 153° Southeast  Level FlightAware
Sun 06:50:00 PM 18.1295 -72.1080 153° Southeast  Level FlightAware
Sun 06:51:00 PM 18.0223 -72.0504 153° Southeast  Level FlightAware
Sun 06:52:00 PM 17.9151 -71.9929 153° Southeast  Level FlightAware
Sun 06:53:00 PM 17.8079 -71.9355 153° Southeast  Level FlightAware
Sun 06:54:00 PM 17.7006 -71.8781 153° Southeast  Level FlightAware
Sun 06:55:00 PM 17.5934 -71.8208 153° Southeast  Level FlightAware
Sun 06:56:00 PM 17.4861 -71.7636 153° Southeast  Level FlightAware
Sun 06:57:00 PM 17.3788 -71.7064 153° Southeast  Level FlightAware
Sun 06:58:00 PM 17.2716 -71.6486 153° Southeast  Level FlightAware
Sun 06:59:00 PM 17.1647 -71.5909 153° Southeast  Level FlightAware
Sun 07:00:00 PM 17.0577 -71.5331 153° Southeast  Level FlightAware
Sun 07:01:00 PM 16.9507 -71.4755 153° Southeast  Level FlightAware
Sun 07:02:00 PM 16.8437 -71.4180 153° Southeast  Level FlightAware
Sun 07:03:00 PM 16.7366 -71.3605 153° Southeast  Level FlightAware
Sun 07:04:00 PM 16.6296 -71.3030 153° Southeast  Level FlightAware
Sun 07:05:00 PM 16.5225 -71.2456 153° Southeast  Level FlightAware
Sun 07:06:00 PM 16.4154 -71.1883 153° Southeast  Level FlightAware
Sun 07:07:00 PM 16.3083 -71.1311 153° Southeast  Level FlightAware
Sun 07:08:00 PM 16.2012 -71.0739 153° Southeast  Level FlightAware
Sun 07:09:00 PM 16.0941 -71.0168 153° Southeast  Level FlightAware
Sun 07:10:00 PM 15.9869 -70.9598 153° Southeast  Level FlightAware
Sun 07:11:00 PM 15.8794 -70.9034 153° Southeast  Level FlightAware
Sun 07:12:00 PM 15.7720 -70.8470 153° Southeast  Level FlightAware
Sun 07:13:00 PM 15.6645 -70.7907 153° Southeast  Level FlightAware
Sun 07:14:00 PM 15.5570 -70.7345 153° Southeast  Level FlightAware
Sun 07:15:00 PM 15.4495 -70.6783 153° Southeast  Level FlightAware
Sun 07:16:00 PM 15.3420 -70.6221 153° Southeast  Level FlightAware
Sun 07:17:00 PM 15.2345 -70.5661 153° Southeast  Level FlightAware
Sun 07:18:00 PM 15.1269 -70.5101 153° Southeast  Level FlightAware
Sun 07:19:00 PM 15.0194 -70.4541 153° Southeast  Level FlightAware
Sun 07:20:00 PM 14.9118 -70.3982 153° Southeast  Level FlightAware
Sun 07:21:00 PM 14.8042 -70.3424 153° Southeast  Level FlightAware
Sun 07:22:00 PM 14.6966 -70.2866 153° Southeast  Level FlightAware
Sun 07:23:00 PM 14.5890 -70.2309 153° Southeast  Level FlightAware
Sun 07:24:00 PM 14.4814 -70.1752 153° Southeast  Level FlightAware
Sun 07:25:00 PM 14.3737 -70.1196 153° Southeast  Level FlightAware
Sun 07:26:00 PM 14.2661 -70.0640 153° Southeast  Level FlightAware
Sun 07:27:00 PM 14.1584 -70.0085 153° Southeast  Level FlightAware
Sun 07:28:00 PM 14.0508 -69.9530 153° Southeast  Level FlightAware
Sun 07:29:00 PM 13.9431 -69.8976 153° Southeast  Level FlightAware
Sun 07:30:00 PM 13.8354 -69.8422 153° Southeast  Level FlightAware
Sun 07:31:00 PM 13.7277 -69.7869 153° Southeast  Level FlightAware
Sun 07:32:00 PM 13.6199 -69.7317 154° Southeast  Level FlightAware
Sun 07:33:00 PM 13.5122 -69.6765 154° Southeast  Level FlightAware
Sun 07:34:00 PM 13.4044 -69.6213 154° Southeast  Level FlightAware
Sun 07:35:00 PM 13.2967 -69.5662 154° Southeast  Level FlightAware
Sun 07:36:00 PM 13.1889 -69.5111 154° Southeast  Level FlightAware
Sun 07:37:00 PM 13.0811 -69.4561 154° Southeast  Level FlightAware
Sun 07:38:00 PM 12.9733 -69.4012 154° Southeast  Level FlightAware
Sun 07:39:00 PM 12.8655 -69.3463 154° Southeast  Level FlightAware
Sun 07:40:00 PM 12.7577 -69.2914 154° Southeast  Level FlightAware
Sun 07:41:00 PM 12.6498 -69.2366 154° Southeast  Level FlightAware
Sun 07:42:00 PM 12.5420 -69.1818 154° Southeast  Level FlightAware
Sun 07:43:00 PM 12.4341 -69.1271 154° Southeast  Level FlightAware
Sun 07:44:00 PM 12.3263 -69.0724 154° Southeast  Level FlightAware
Sun 07:45:00 PM 12.2184 -69.0178 154° Southeast  Level FlightAware
Sun 07:46:00 PM 12.1328 -68.9349 128° Southeast  Level FlightAware
Sun 07:47:00 PM 12.0579 -68.8386 128° Southeast  Level FlightAware
Sun 07:48:00 PM 11.9829 -68.7423 128° Southeast  Level FlightAware
Sun 07:49:00 PM 11.9069 -68.6469 130° Southeast  Level FlightAware
Sun 07:50:00 PM 11.8301 -68.5523 130° Southeast  Level FlightAware
Sun 07:51:00 PM 11.7531 -68.4577 130° Southeast  Level FlightAware
Sun 07:52:00 PM 11.6885 -68.3552 136° Southeast  Level FlightAware
Sun 07:53:00 PM 11.6071 -68.2650 127° Southeast  Level FlightAware
Sun 07:54:00 PM 11.5339 -68.1675 127° Southeast  Level FlightAware
Sun 07:55:00 PM 11.4592 -68.0713 128° Southeast  Level FlightAware
Sun 07:56:00 PM 11.3795 -67.9795 136° Southeast  Level FlightAware
Sun 07:57:00 PM 11.3057 -67.8828 127° Southeast  Level FlightAware
Sun 07:58:00 PM 11.2340 -67.7841 127° Southeast  Level FlightAware
Sun 07:59:00 PM 11.1623 -67.6856 127° Southeast  Level FlightAware
Sun 08:00:00 PM 11.0895 -67.5880 132° Southeast  Level FlightAware
Sun 08:01:00 PM 11.0094 -67.4965 132° Southeast  Level FlightAware
Sun 08:02:00 PM 10.9321 -67.4026 129° Southeast  Level FlightAware
Sun 08:03:00 PM 10.8560 -67.3075 129° Southeast  Level FlightAware
Sun 08:04:00 PM 10.7828 -67.2103 127° Southeast  Level FlightAware
Sun 08:05:00 PM 10.7092 -67.1138 124° Southeast  Level FlightAware
Sun 08:06:00 PM 10.6346 -67.0179 135° Southeast  Level FlightAware
Sun 08:07:00 PM 10.6031 -66.9906 90° East  Level Estimated
Sun 08:08:00 PM 10.6031 -66.9906 90° East  Level Estimated
Sun 08:09:00 PM 10.6031 -66.9906 90° East  Level Estimated
Sun 08:10:00 PM 10.6031 -66.9906 90° East  Level Estimated
Sun 08:11:00 PM 10.6031 -66.9906 90° East  Level Estimated
Sun 08:12:00 PM 10.6031 -66.9906 90° East  Level Estimated
Sun 08:13:00 PM 10.6031 -66.9906 90° East  Level Estimated
Sun 08:14:00 PM 10.6031 -66.9906 90° East  Level Estimated
Sun 08:15:00 PM 10.6031 -66.9906 90° East  Level Estimated
Sun 08:16:00 PM 10.6031 -66.9906 90° East  Level Estimated
Sun 08:17:00 PM 10.6031 -66.9906 90° East  Level Estimated
Sun 08:18:00 PM 10.6031 -66.9906 90° East  Level Estimated
Sun 08:19:00 PM 10.6031 -66.9906 90° East  Level Estimated
Sun 08:20:00 PM 10.6031 -66.9906 90° East  Level Estimated
Sun 08:21:00 PM 10.6031 -66.9906 90° East  Level Estimated
Sun 08:22:00 PM 10.6031 -66.9906 90° East  Level Estimated
Sun 08:23:00 PM 10.6031 -66.9906 90° East  Level Estimated
Sun 08:24:00 PM 10.6031 -66.9906 90° East  Level Estimated
Sun 08:25:00 PM 10.6031 -66.9906 90° East  Level Estimated

Login

Don't have an account? Register now (free) for customized features, flight alerts, and more!